Time;durP1;ratioP1;P1;durP2;ratioP2;P2;SDS_P1;SDS_P2;PMS_P1;PMS_P2;Temp;Humidity;BMP_temperature;BMP_pressure;BME280_temperature;BME280_humidity;BME280_pressure;Samples;Min_cycle;Max_cycle;Signal;HPM_P1;HPM_P2
2023/06/29 00:02:25;;;;;;;;;;;11.60;99.90;;;;;;5095628;28;19908;-62
2023/06/29 00:04:53;;;;;;;;;;;11.80;99.90;;;;;;5093098;28;19920;-62
2023/06/29 00:07:20;;;;;;;;;;;11.80;99.90;;;;;;5068462;28;19919;-61
2023/06/29 00:09:47;;;;;;;;;;;11.90;99.90;;;;;;5081565;28;19908;-62
2023/06/29 00:12:14;;;;;;;;;;;11.80;99.90;;;;;;5094757;28;19908;-61
2023/06/29 00:14:41;;;;;;;;;;;12.00;99.90;;;;;;5095159;28;19916;-63
2023/06/29 00:17:07;;;;;;;;;;;12.00;99.90;;;;;;5087926;28;19917;-62
2023/06/29 00:19:35;;;;;;;;;;;12.00;99.90;;;;;;5087572;28;19908;-63
2023/06/29 00:22:02;;;;;;;;;;;12.00;99.90;;;;;;5085259;28;19923;-63
2023/06/29 00:24:29;;;;;;;;;;;12.20;99.90;;;;;;5074654;28;19916;-61
2023/06/29 00:26:55;;;;;;;;;;;12.20;99.90;;;;;;5091076;28;19913;-63
2023/06/29 00:29:22;;;;;;;;;;;12.30;99.70;;;;;;5094655;28;20272;-62
2023/06/29 00:31:49;;;;;;;;;;;12.30;99.30;;;;;;5094779;28;19909;-62
2023/06/29 00:34:15;;;;;;;;;;;12.40;98.90;;;;;;5094466;28;19949;-63
2023/06/29 00:36:42;;;;;;;;;;;12.50;98.90;;;;;;5090628;28;20008;-62
2023/06/29 00:39:09;;;;;;;;;;;12.40;99.10;;;;;;5085272;28;19923;-62
2023/06/29 00:41:35;;;;;;;;;;;12.50;98.80;;;;;;5074658;28;19912;-65
2023/06/29 00:44:02;;;;;;;;;;;12.60;98.90;;;;;;5083401;28;19924;-65
2023/06/29 00:46:29;;;;;;;;;;;12.70;98.90;;;;;;5073547;28;20532;-64
2023/06/29 00:48:55;;;;;;;;;;;12.70;98.30;;;;;;5092201;28;19908;-64
2023/06/29 00:51:22;;;;;;;;;;;12.80;98.10;;;;;;5092985;28;19912;-63
2023/06/29 00:53:49;;;;;;;;;;;12.70;98.40;;;;;;5092629;28;20399;-63
2023/06/29 00:56:15;;;;;;;;;;;12.80;98.80;;;;;;5093097;28;19916;-64
2023/06/29 00:58:42;;;;;;;;;;;12.90;98.50;;;;;;5092638;28;19961;-63
2023/06/29 01:01:09;;;;;;;;;;;13.00;98.60;;;;;;5093829;28;19912;-64
2023/06/29 01:03:36;;;;;;;;;;;13.10;98.60;;;;;;5094495;28;20261;-65
2023/06/29 01:06:05;;;;;;;;;;;13.10;98.50;;;;;;5094026;28;19912;-64
2023/06/29 01:08:42;;;;;;;;;;;13.20;98.30;;;;;;5093080;28;19918;-65
2023/06/29 01:11:09;;;;;;;;;;;13.20;97.70;;;;;;5094375;28;19908;-62
2023/06/29 01:13:36;;;;;;;;;;;13.20;97.30;;;;;;5094353;28;19915;-63
2023/06/29 01:16:03;;;;;;;;;;;13.30;97.40;;;;;;5094353;28;19920;-64
2023/06/29 01:18:31;;;;;;;;;;;13.40;96.90;;;;;;5075909;28;19909;-64
2023/06/29 01:20:59;;;;;;;;;;;13.40;97.20;;;;;;5073723;28;19909;-66
2023/06/29 01:23:26;;;;;;;;;;;13.40;97.10;;;;;;5093187;28;20357;-63
2023/06/29 01:25:57;;;;;;;;;;;13.60;96.40;;;;;;5094091;28;19953;-62
2023/06/29 01:28:24;;;;;;;;;;;13.70;95.80;;;;;;5093435;28;19995;-64
2023/06/29 01:30:51;;;;;;;;;;;13.70;94.90;;;;;;5075252;28;19918;-65
2023/06/29 01:33:22;;;;;;;;;;;13.80;94.70;;;;;;5093977;28;20022;-62
2023/06/29 01:35:52;;;;;;;;;;;13.90;94.80;;;;;;5093415;28;19917;-64
2023/06/29 01:38:22;;;;;;;;;;;14.00;93.80;;;;;;5078380;28;20280;-63
2023/06/29 01:40:49;;;;;;;;;;;14.00;93.70;;;;;;5084082;28;20400;-64
2023/06/29 01:43:18;;;;;;;;;;;14.00;93.50;;;;;;5080320;28;20042;-62
2023/06/29 01:45:45;;;;;;;;;;;14.10;93.80;;;;;;5093413;28;19916;-62
2023/06/29 01:48:12;;;;;;;;;;;14.20;93.60;;;;;;5082061;28;20376;-64
2023/06/29 01:50:39;;;;;;;;;;;14.30;93.30;;;;;;5083807;28;20010;-64
2023/06/29 01:53:06;;;;;;;;;;;14.40;92.80;;;;;;5075679;28;19924;-65
2023/06/29 01:55:32;;;;;;;;;;;14.50;93.50;;;;;;5083956;28;20383;-64
2023/06/29 01:57:59;;;;;;;;;;;14.50;93.00;;;;;;5093172;28;20000;-65
2023/06/29 02:00:26;;;;;;;;;;;14.60;92.30;;;;;;5092827;28;19908;-65
2023/06/29 02:02:53;;;;;;;;;;;14.60;92.60;;;;;;5089807;28;19919;-65
2023/06/29 02:05:21;;;;;;;;;;;14.60;92.40;;;;;;5072789;28;19999;-65
2023/06/29 02:07:48;;;;;;;;;;;14.60;92.30;;;;;;5072737;28;19919;-64
2023/06/29 02:10:14;;;;;;;;;;;14.70;92.20;;;;;;5072451;28;19975;-65
2023/06/29 02:12:41;;;;;;;;;;;14.70;91.60;;;;;;5081564;28;19912;-66
2023/06/29 02:15:08;;;;;;;;;;;14.70;91.70;;;;;;5086247;28;19920;-65
2023/06/29 02:17:34;;;;;;;;;;;14.70;91.60;;;;;;5090161;28;19912;-66
2023/06/29 02:20:01;;;;;;;;;;;14.70;91.80;;;;;;5092618;28;20261;-66
2023/06/29 02:22:28;;;;;;;;;;;14.60;91.80;;;;;;5092441;28;19953;-66
2023/06/29 02:24:54;;;;;;;;;;;14.60;91.10;;;;;;5092100;28;19912;-65
2023/06/29 02:27:21;;;;;;;;;;;14.60;91.00;;;;;;5083934;28;19912;-65
2023/06/29 02:29:47;;;;;;;;;;;14.60;91.20;;;;;;5072391;28;20273;-65
2023/06/29 02:32:14;;;;;;;;;;;14.80;91.70;;;;;;5082876;28;19919;-65
2023/06/29 02:34:41;;;;;;;;;;;14.90;91.50;;;;;;5092469;28;19938;-64
2023/06/29 02:37:07;;;;;;;;;;;15.20;90.90;;;;;;5087679;28;19959;-64
2023/06/29 02:39:34;;;;;;;;;;;15.30;91.00;;;;;;5092419;28;19966;-63
2023/06/29 02:42:00;;;;;;;;;;;15.30;90.90;;;;;;5091903;28;19996;-62
2023/06/29 02:44:27;;;;;;;;;;;15.30;90.40;;;;;;5091640;28;20014;-64
2023/06/29 02:46:54;;;;;;;;;;;15.40;89.60;;;;;;5087784;28;20392;-62
2023/06/29 02:49:20;;;;;;;;;;;15.40;89.60;;;;;;5072972;28;19954;-61
2023/06/29 02:51:47;;;;;;;;;;;15.30;89.70;;;;;;5072080;28;19908;-63
2023/06/29 02:54:13;;;;;;;;;;;15.30;89.20;;;;;;5072118;28;19908;-63
2023/06/29 02:56:40;;;;;;;;;;;15.40;90.00;;;;;;5071984;28;19908;-63
2023/06/29 02:59:07;;;;;;;;;;;15.60;88.30;;;;;;5087260;28;19983;-62
2023/06/29 03:01:33;;;;;;;;;;;16.40;86.60;;;;;;5092440;28;20000;-65
2023/06/29 03:04:00;;;;;;;;;;;16.90;84.60;;;;;;5091800;28;19951;-63
2023/06/29 03:06:27;;;;;;;;;;;17.30;83.70;;;;;;5085641;28;20308;-65
2023/06/29 03:08:53;;;;;;;;;;;17.90;82.70;;;;;;5082539;28;20268;-63
2023/06/29 03:11:20;;;;;;;;;;;18.20;80.20;;;;;;5092286;28;19908;-65
2023/06/29 03:13:49;;;;;;;;;;;18.30;79.70;;;;;;5091968;28;19915;-62
2023/06/29 03:16:16;;;;;;;;;;;17.90;79.50;;;;;;5092279;28;20007;-62
2023/06/29 03:18:43;;;;;;;;;;;17.70;79.80;;;;;;5087273;28;19912;-62
2023/06/29 03:21:10;;;;;;;;;;;17.60;79.60;;;;;;5091809;28;20327;-63
2023/06/29 03:23:36;;;;;;;;;;;18.00;79.10;;;;;;5091619;28;19916;-63
2023/06/29 03:26:03;;;;;;;;;;;18.20;79.20;;;;;;5084609;28;19912;-63
2023/06/29 03:28:30;;;;;;;;;;;19.10;76.90;;;;;;5071563;28;19908;-66
2023/06/29 03:30:56;;;;;;;;;;;20.20;73.90;;;;;;5089920;28;19912;-64
2023/06/29 03:33:23;;;;;;;;;;;20.70;73.30;;;;;;5077608;28;20323;-64
2023/06/29 03:35:49;;;;;;;;;;;20.90;73.00;;;;;;5096152;28;19970;-64
2023/06/29 03:38:17;;;;;;;;;;;21.80;71.20;;;;;;5095403;28;20156;-62
2023/06/29 03:40:44;;;;;;;;;;;23.00;69.10;;;;;;5096267;28;19908;-65
2023/06/29 03:43:10;;;;;;;;;;;24.40;66.20;;;;;;5091191;28;20372;-65
2023/06/29 03:45:37;;;;;;;;;;;25.60;63.00;;;;;;5095725;28;19916;-63
2023/06/29 03:48:04;;;;;;;;;;;26.70;60.60;;;;;;5081940;28;19960;-65
2023/06/29 03:50:30;;;;;;;;;;;27.60;58.70;;;;;;5083437;28;19908;-65
2023/06/29 03:52:57;;;;;;;;;;;28.20;56.20;;;;;;5095233;28;20253;-64
2023/06/29 03:55:26;;;;;;;;;;;28.40;54.50;;;;;;5082616;28;20266;-64
2023/06/29 03:57:54;;;;;;;;;;;28.40;54.30;;;;;;5087378;28;20269;-63
2023/06/29 04:00:21;;;;;;;;;;;28.20;53.60;;;;;;5095317;28;19999;-64
2023/06/29 04:02:48;;;;;;;;;;;28.40;53.30;;;;;;5094922;28;19908;-63
2023/06/29 04:05:14;;;;;;;;;;;28.30;53.40;;;;;;5093471;28;19919;-65
2023/06/29 04:07:41;;;;;;;;;;;28.30;53.10;;;;;;5088752;28;20004;-63
2023/06/29 04:10:08;;;;;;;;;;;27.60;53.00;;;;;;5094391;28;20372;-64
2023/06/29 04:12:34;;;;;;;;;;;26.40;53.40;;;;;;5094647;28;19963;-63
2023/06/29 04:15:01;;;;;;;;;;;24.90;55.80;;;;;;5074890;28;20331;-63
2023/06/29 04:17:28;;;;;;;;;;;23.60;56.90;;;;;;5084897;28;19912;-63
2023/06/29 04:19:54;;;;;;;;;;;22.20;59.20;;;;;;5094789;28;20353;-65
2023/06/29 04:22:21;;;;;;;;;;;21.10;61.10;;;;;;5095169;28;19908;-65
2023/06/29 04:24:48;;;;;;;;;;;20.00;61.70;;;;;;5094460;28;19951;-63
2023/06/29 04:27:15;;;;;;;;;;;19.10;63.70;;;;;;5078323;28;19919;-63
2023/06/29 04:29:42;;;;;;;;;;;18.50;65.30;;;;;;5083139;28;19966;-62
2023/06/29 04:32:09;;;;;;;;;;;18.00;67.30;;;;;;5094733;28;19954;-64
2023/06/29 04:34:35;;;;;;;;;;;17.70;67.70;;;;;;5094563;28;19923;-62
2023/06/29 04:37:02;;;;;;;;;;;17.30;68.20;;;;;;5092129;28;19912;-63
2023/06/29 04:39:29;;;;;;;;;;;17.20;68.80;;;;;;5074924;28;19912;-64
2023/06/29 04:42:01;;;;;;;;;;;17.00;68.70;;;;;;5086444;28;19912;-61
2023/06/29 04:44:37;;;;;;;;;;;16.80;69.00;;;;;;5093269;28;19928;-65
2023/06/29 04:47:04;;;;;;;;;;;16.70;70.60;;;;;;5083840;28;20204;-62
2023/06/29 04:49:36;;;;;;;;;;;16.60;69.90;;;;;;5088439;28;19961;-63
2023/06/29 04:52:03;;;;;;;;;;;16.50;70.50;;;;;;5081963;28;20361;-63
2023/06/29 04:54:30;;;;;;;;;;;16.50;71.30;;;;;;5081766;28;19923;-63
2023/06/29 04:56:57;;;;;;;;;;;16.40;70.60;;;;;;5077895;28;19981;-62
2023/06/29 04:59:25;;;;;;;;;;;16.50;71.60;;;;;;5089633;28;19913;-65
2023/06/29 05:01:51;;;;;;;;;;;16.60;71.20;;;;;;5074338;28;19914;-63
2023/06/29 05:04:18;;;;;;;;;;;16.70;71.70;;;;;;5074086;28;20428;-63
2023/06/29 05:06:45;;;;;;;;;;;16.70;70.70;;;;;;5089659;28;20360;-63
2023/06/29 05:09:12;;;;;;;;;;;16.90;71.50;;;;;;5084957;28;20031;-61
2023/06/29 05:11:39;;;;;;;;;;;16.80;71.40;;;;;;5094284;28;19911;-62
2023/06/29 05:14:05;;;;;;;;;;;16.90;71.40;;;;;;5093122;28;20390;-62
2023/06/29 05:16:32;;;;;;;;;;;16.80;71.20;;;;;;5093401;28;19926;-62
2023/06/29 05:18:59;;;;;;;;;;;16.90;73.00;;;;;;5074993;28;20368;-61
2023/06/29 05:21:27;;;;;;;;;;;17.00;72.00;;;;;;5072941;28;19994;-63
2023/06/29 05:23:53;;;;;;;;;;;16.90;71.50;;;;;;5072571;28;20345;-63
2023/06/29 05:26:20;;;;;;;;;;;16.70;71.90;;;;;;5071599;28;19987;-65
2023/06/29 05:28:47;;;;;;;;;;;16.70;71.50;;;;;;5079240;28;20067;-64
2023/06/29 05:31:13;;;;;;;;;;;16.70;72.00;;;;;;5091972;28;19908;-65
2023/06/29 05:33:40;;;;;;;;;;;16.60;72.40;;;;;;5092126;28;19908;-62
2023/06/29 05:36:07;;;;;;;;;;;16.70;71.90;;;;;;5080311;28;19929;-65
2023/06/29 05:38:33;;;;;;;;;;;16.80;72.40;;;;;;5089461;28;19980;-63
2023/06/29 05:41:00;;;;;;;;;;;16.90;72.20;;;;;;5090436;28;19912;-63
2023/06/29 05:43:26;;;;;;;;;;;17.10;71.10;;;;;;5090492;28;19919;-63
2023/06/29 05:45:53;;;;;;;;;;;17.20;70.10;;;;;;5088384;28;19912;-62
2023/06/29 05:48:20;;;;;;;;;;;17.20;70.30;;;;;;5089397;28;20369;-63
2023/06/29 05:50:46;;;;;;;;;;;17.20;70.20;;;;;;5079324;28;19947;-64
2023/06/29 05:53:13;;;;;;;;;;;17.20;70.40;;;;;;5085948;28;19919;-63
2023/06/29 05:55:39;;;;;;;;;;;17.20;70.30;;;;;;5088189;28;19931;-61
2023/06/29 05:58:06;;;;;;;;;;;17.20;69.80;;;;;;5088853;28;20270;-61
2023/06/29 06:00:33;;;;;;;;;;;17.20;69.90;;;;;;5088081;28;19916;-61
2023/06/29 06:02:59;;;;;;;;;;;17.40;69.60;;;;;;5084337;28;19955;-61
2023/06/29 06:05:27;;;;;;;;;;;17.80;69.70;;;;;;5090440;28;20050;-61
2023/06/29 06:07:53;;;;;;;;;;;18.20;68.00;;;;;;5090171;28;20422;-60
2023/06/29 06:10:20;;;;;;;;;;;18.60;67.30;;;;;;5087564;28;19919;-62
2023/06/29 06:12:47;;;;;;;;;;;19.10;65.90;;;;;;5091812;28;19909;-63
2023/06/29 06:15:14;;;;;;;;;;;19.50;65.80;;;;;;5090499;28;20014;-61
2023/06/29 06:17:41;;;;;;;;;;;19.20;65.30;;;;;;5086722;28;19983;-61
2023/06/29 06:20:09;;;;;;;;;;;18.50;65.90;;;;;;5090054;28;19912;-62
2023/06/29 06:22:35;;;;;;;;;;;18.00;68.10;;;;;;5088871;28;20365;-63
2023/06/29 06:25:02;;;;;;;;;;;17.40;68.50;;;;;;5072519;28;20274;-63
2023/06/29 06:27:29;;;;;;;;;;;17.00;70.60;;;;;;5088257;28;20464;-62
2023/06/29 06:29:55;;;;;;;;;;;16.60;70.40;;;;;;5090675;28;20353;-63
2023/06/29 06:32:24;;;;;;;;;;;16.10;71.90;;;;;;5083645;28;20379;-62
2023/06/29 06:34:54;;;;;;;;;;;15.60;71.90;;;;;;5089821;28;19955;-63
2023/06/29 06:37:20;;;;;;;;;;;15.30;72.30;;;;;;5083454;28;19997;-63
2023/06/29 06:39:47;;;;;;;;;;;15.00;72.90;;;;;;5072825;28;19919;-63
2023/06/29 06:42:13;;;;;;;;;;;14.70;73.30;;;;;;5084412;28;19909;-64
2023/06/29 06:44:49;;;;;;;;;;;14.50;74.20;;;;;;5087138;28;19965;-62
2023/06/29 06:47:16;;;;;;;;;;;14.30;73.90;;;;;;5088562;28;20369;-63
2023/06/29 06:49:42;;;;;;;;;;;14.10;74.60;;;;;;5087328;28;19919;-62
2023/06/29 06:52:09;;;;;;;;;;;14.00;75.60;;;;;;5080222;28;19923;-63
2023/06/29 06:54:36;;;;;;;;;;;13.90;75.10;;;;;;5078721;28;19922;-62
2023/06/29 06:57:02;;;;;;;;;;;13.70;75.70;;;;;;5090804;28;19994;-62
2023/06/29 06:59:29;;;;;;;;;;;13.70;76.10;;;;;;5090887;28;19915;-63
2023/06/29 07:01:56;;;;;;;;;;;13.60;76.40;;;;;;5081604;28;20553;-63
2023/06/29 07:04:22;;;;;;;;;;;13.50;77.30;;;;;;5072819;28;19913;-62
2023/06/29 07:06:49;;;;;;;;;;;13.40;77.00;;;;;;5084481;28;20385;-63
2023/06/29 07:09:15;;;;;;;;;;;13.30;77.30;;;;;;5083168;28;19964;-63
2023/06/29 07:11:42;;;;;;;;;;;13.20;77.90;;;;;;5087253;28;19944;-62
2023/06/29 07:14:09;;;;;;;;;;;13.20;78.20;;;;;;5088464;28;20427;-61
2023/06/29 07:16:35;;;;;;;;;;;13.00;78.70;;;;;;5080000;28;19978;-62
2023/06/29 07:19:07;;;;;;;;;;;13.00;79.20;;;;;;5071760;28;20035;-62
2023/06/29 07:21:34;;;;;;;;;;;12.90;80.00;;;;;;5087849;28;20026;-62
2023/06/29 07:24:00;;;;;;;;;;;12.90;79.80;;;;;;5071516;28;20407;-64
2023/06/29 07:26:27;;;;;;;;;;;12.80;80.50;;;;;;5085689;28;19912;-62
2023/06/29 07:28:54;;;;;;;;;;;12.70;80.50;;;;;;5070753;28;19931;-62
2023/06/29 07:31:27;;;;;;;;;;;12.70;81.20;;;;;;5086593;28;20427;-62
2023/06/29 07:33:55;;;;;;;;;;;12.60;80.80;;;;;;5077552;28;19914;-62
2023/06/29 07:36:22;;;;;;;;;;;12.50;81.30;;;;;;5089369;28;20392;-62
2023/06/29 07:38:49;;;;;;;;;;;12.50;81.50;;;;;;5081379;28;19969;-61
2023/06/29 07:41:17;;;;;;;;;;;12.40;81.90;;;;;;5091331;28;19912;-62
2023/06/29 07:43:48;;;;;;;;;;;12.40;82.30;;;;;;5071580;28;19928;-61
2023/06/29 07:46:14;;;;;;;;;;;12.30;82.60;;;;;;5078683;28;20046;-63
2023/06/29 07:48:42;;;;;;;;;;;12.20;82.90;;;;;;5071629;28;20331;-62
2023/06/29 07:51:09;;;;;;;;;;;12.20;82.80;;;;;;5102400;28;19912;-63
2023/06/29 07:53:36;;;;;;;;;;;12.20;83.40;;;;;;5072589;28;19912;-62
2023/06/29 07:56:03;;;;;;;;;;;12.10;83.80;;;;;;5085770;28;19916;-62
2023/06/29 07:58:30;;;;;;;;;;;12.10;85.40;;;;;;5071565;28;19973;-63
2023/06/29 08:00:57;;;;;;;;;;;12.00;86.00;;;;;;5083746;28;20376;-62
2023/06/29 08:03:24;;;;;;;;;;;11.90;85.30;;;;;;5088228;28;20006;-62
2023/06/29 08:05:52;;;;;;;;;;;11.90;85.40;;;;;;5079505;28;19909;-62
2023/06/29 08:08:19;;;;;;;;;;;11.90;86.20;;;;;;5070852;28;19916;-62
2023/06/29 08:10:47;;;;;;;;;;;11.80;86.40;;;;;;5070375;28;19905;-62
2023/06/29 08:13:14;;;;;;;;;;;11.70;86.50;;;;;;5074630;28;19916;-62
2023/06/29 08:15:41;;;;;;;;;;;11.70;86.20;;;;;;5078320;28;19923;-63
2023/06/29 08:18:08;;;;;;;;;;;11.60;86.60;;;;;;5073239;28;19912;-62
2023/06/29 08:20:34;;;;;;;;;;;11.60;86.40;;;;;;5083319;28;19916;-64
2023/06/29 08:23:01;;;;;;;;;;;11.50;87.00;;;;;;5086671;28;19944;-63
2023/06/29 08:25:28;;;;;;;;;;;11.50;87.10;;;;;;5095112;28;19915;-62
2023/06/29 08:27:54;;;;;;;;;;;11.50;87.10;;;;;;5079375;28;20380;-63
2023/06/29 08:30:22;;;;;;;;;;;11.50;88.00;;;;;;5080192;28;19908;-62
2023/06/29 08:32:48;;;;;;;;;;;11.50;87.50;;;;;;5091964;28;19916;-62
2023/06/29 08:35:15;;;;;;;;;;;11.50;87.40;;;;;;5099150;28;19947;-62
2023/06/29 08:37:42;;;;;;;;;;;11.40;87.30;;;;;;5093328;28;19912;-63
2023/06/29 08:40:10;;;;;;;;;;;11.40;87.00;;;;;;5077457;28;19998;-62
2023/06/29 08:42:39;;;;;;;;;;;11.40;87.60;;;;;;5082686;28;19912;-62
2023/06/29 08:45:07;;;;;;;;;;;11.30;87.60;;;;;;5076683;28;19920;-61
2023/06/29 08:47:36;;;;;;;;;;;11.30;87.80;;;;;;5091537;28;19908;-62
2023/06/29 08:50:04;;;;;;;;;;;11.30;87.90;;;;;;5093639;28;19916;-62
2023/06/29 08:52:35;;;;;;;;;;;11.20;87.70;;;;;;5094581;28;19908;-63
2023/06/29 08:55:02;;;;;;;;;;;11.10;88.30;;;;;;5094489;28;19917;-64
2023/06/29 08:57:33;;;;;;;;;;;11.10;88.60;;;;;;5094349;28;20015;-62
2023/06/29 09:00:00;;;;;;;;;;;11.00;89.60;;;;;;5073608;28;19944;-64
2023/06/29 09:02:27;;;;;;;;;;;11.00;89.20;;;;;;5089301;28;19952;-63
2023/06/29 09:04:55;;;;;;;;;;;11.00;89.50;;;;;;5094075;28;19919;-62
2023/06/29 09:07:23;;;;;;;;;;;10.90;88.80;;;;;;5093986;28;20006;-63
2023/06/29 09:09:50;;;;;;;;;;;11.00;89.70;;;;;;5091326;28;19919;-62
2023/06/29 09:12:17;;;;;;;;;;;10.90;90.00;;;;;;5093516;28;19908;-64
2023/06/29 09:14:46;;;;;;;;;;;10.90;89.10;;;;;;5093704;28;19916;-63
2023/06/29 09:17:17;;;;;;;;;;;10.90;89.20;;;;;;5094225;28;19995;-61
2023/06/29 09:19:57;;;;;;;;;;;10.80;90.00;;;;;;5093313;28;19965;-64
2023/06/29 09:22:30;;;;;;;;;;;10.80;89.80;;;;;;5076238;28;20402;-62
2023/06/29 09:24:58;;;;;;;;;;;10.80;89.90;;;;;;5093577;28;20314;-63
2023/06/29 09:27:24;;;;;;;;;;;10.80;90.10;;;;;;5093410;28;19912;-64
2023/06/29 09:29:51;;;;;;;;;;;10.70;90.10;;;;;;5092959;28;20430;-63
2023/06/29 09:32:18;;;;;;;;;;;10.60;89.50;;;;;;5093410;28;19908;-64
2023/06/29 09:34:49;;;;;;;;;;;10.60;89.90;;;;;;5093851;28;19920;-62
2023/06/29 09:37:16;;;;;;;;;;;10.60;90.10;;;;;;5081814;28;20311;-63
2023/06/29 09:40:11;;;;;;;;;;;10.70;89.90;;;;;;5090696;28;19908;-63
2023/06/29 09:42:38;;;;;;;;;;;10.60;89.60;;;;;;5073565;28;19912;-62
2023/06/29 09:45:11;;;;;;;;;;;10.50;89.60;;;;;;5091856;28;19920;-64
2023/06/29 09:47:47;;;;;;;;;;;10.50;90.00;;;;;;5093672;28;20322;-62
2023/06/29 09:50:24;;;;;;;;;;;10.50;90.40;;;;;;5093783;28;20268;-63
2023/06/29 09:52:55;;;;;;;;;;;10.40;90.20;;;;;;5093320;28;19943;-63
2023/06/29 09:55:28;;;;;;;;;;;10.40;90.80;;;;;;5092935;28;20269;-62
2023/06/29 09:57:55;;;;;;;;;;;10.40;90.50;;;;;;5093372;28;20388;-63
2023/06/29 10:00:22;;;;;;;;;;;10.40;90.30;;;;;;5093292;28;19912;-63
2023/06/29 10:02:48;;;;;;;;;;;10.30;90.40;;;;;;5093768;28;19908;-63
2023/06/29 10:05:15;;;;;;;;;;;10.20;90.90;;;;;;5092522;28;19912;-63
2023/06/29 10:07:42;;;;;;;;;;;10.20;91.20;;;;;;5091235;28;19908;-62
2023/06/29 10:10:11;;;;;;;;;;;10.10;90.70;;;;;;5087948;28;20361;-60
2023/06/29 10:12:38;;;;;;;;;;;10.10;90.90;;;;;;5073694;28;19913;-61
2023/06/29 10:15:09;;;;;;;;;;;10.10;91.10;;;;;;5090928;28;19999;-63
2023/06/29 10:17:41;;;;;;;;;;;10.10;91.20;;;;;;5072535;28;20373;-61
2023/06/29 10:20:08;;;;;;;;;;;10.00;91.10;;;;;;5086266;28;19998;-62
2023/06/29 10:22:36;;;;;;;;;;;10.00;91.70;;;;;;5072387;28;20060;-60
2023/06/29 10:25:06;;;;;;;;;;;10.00;91.40;;;;;;5092242;28;19920;-61
2023/06/29 10:27:34;;;;;;;;;;;10.00;91.10;;;;;;5085334;28;20074;-63
2023/06/29 10:30:04;;;;;;;;;;;9.90;91.40;;;;;;5075530;28;19913;-62
2023/06/29 10:32:31;;;;;;;;;;;9.90;91.10;;;;;;5072278;28;19908;-61
2023/06/29 10:35:01;;;;;;;;;;;9.90;91.40;;;;;;5087112;28;20351;-62
2023/06/29 10:37:47;;;;;;;;;;;9.90;91.10;;;;;;5085448;28;19916;-61
2023/06/29 10:40:15;;;;;;;;;;;9.90;91.30;;;;;;5076865;28;19983;-62
2023/06/29 10:42:41;;;;;;;;;;;9.90;91.50;;;;;;5091747;28;20392;-64
2023/06/29 10:45:21;;;;;;;;;;;9.80;91.30;;;;;;5083961;28;19990;-61
2023/06/29 10:47:56;;;;;;;;;;;9.80;91.20;;;;;;5072063;28;20023;-63
2023/06/29 10:50:28;;;;;;;;;;;9.80;91.50;;;;;;5083369;28;19915;-61
2023/06/29 10:52:58;;;;;;;;;;;9.80;91.60;;;;;;5072557;28;19912;-64
2023/06/29 10:55:27;;;;;;;;;;;9.70;91.50;;;;;;5091870;28;20360;-63
2023/06/29 10:57:58;;;;;;;;;;;9.70;91.70;;;;;;5082646;28;19981;-64
2023/06/29 11:00:25;;;;;;;;;;;9.70;91.70;;;;;;5092571;28;19908;-64
2023/06/29 11:02:53;;;;;;;;;;;9.60;92.10;;;;;;5074408;28;19915;-63
2023/06/29 11:05:20;;;;;;;;;;;9.70;92.30;;;;;;5072945;28;19963;-61
2023/06/29 11:07:51;;;;;;;;;;;9.60;91.60;;;;;;5081154;28;19919;-62
2023/06/29 11:10:21;;;;;;;;;;;9.60;91.30;;;;;;5083494;28;19918;-62
2023/06/29 11:12:51;;;;;;;;;;;9.50;92.00;;;;;;5076070;28;20011;-64
2023/06/29 11:15:18;;;;;;;;;;;9.50;91.20;;;;;;5091248;28;19989;-61
2023/06/29 11:17:46;;;;;;;;;;;9.60;91.30;;;;;;5082589;28;19912;-63
2023/06/29 11:20:13;;;;;;;;;;;9.60;91.30;;;;;;5081849;28;19916;-62
2023/06/29 11:22:43;;;;;;;;;;;9.50;91.20;;;;;;5071958;28;19912;-62
2023/06/29 11:25:16;;;;;;;;;;;9.50;91.10;;;;;;5081562;28;19923;-61
2023/06/29 11:27:43;;;;;;;;;;;9.50;91.20;;;;;;5071441;28;20003;-62
2023/06/29 11:30:11;;;;;;;;;;;9.50;91.30;;;;;;5082360;28;19936;-61
2023/06/29 11:32:38;;;;;;;;;;;9.40;91.10;;;;;;5071918;28;19912;-62
2023/06/29 11:35:06;;;;;;;;;;;9.40;91.40;;;;;;5088496;28;19922;-63
2023/06/29 11:37:32;;;;;;;;;;;9.40;91.40;;;;;;5084338;28;19908;-65
2023/06/29 11:39:59;;;;;;;;;;;9.50;91.30;;;;;;5087300;28;19951;-65
2023/06/29 11:42:26;;;;;;;;;;;9.40;91.30;;;;;;5092450;28;19908;-63
2023/06/29 11:45:03;;;;;;;;;;;9.40;91.30;;;;;;5091228;28;20284;-65
2023/06/29 11:47:30;;;;;;;;;;;9.40;91.20;;;;;;5085430;28;19920;-65
2023/06/29 11:49:59;;;;;;;;;;;9.40;91.30;;;;;;5081676;28;19913;-64
2023/06/29 11:52:32;;;;;;;;;;;9.40;91.30;;;;;;5073160;28;19916;-63
2023/06/29 11:55:00;;;;;;;;;;;9.40;91.40;;;;;;5085255;28;20024;-63
2023/06/29 11:57:26;;;;;;;;;;;9.40;91.90;;;;;;5074982;28;19956;-62
2023/06/29 11:59:53;;;;;;;;;;;9.50;91.50;;;;;;5084611;28;20308;-62
2023/06/29 12:02:20;;;;;;;;;;;9.40;91.60;;;;;;5075144;28;19999;-62
2023/06/29 12:04:59;;;;;;;;;;;9.30;91.90;;;;;;5087315;28;19912;-60
2023/06/29 12:07:45;;;;;;;;;;;9.30;92.10;;;;;;5087139;28;19908;-62
2023/06/29 12:10:13;;;;;;;;;;;9.30;92.10;;;;;;5083943;28;20416;-64
2023/06/29 12:12:42;;;;;;;;;;;9.30;92.50;;;;;;5094149;28;19908;-65
2023/06/29 12:15:18;;;;;;;;;;;9.20;92.30;;;;;;5095655;28;19920;-65
2023/06/29 12:17:45;;;;;;;;;;;9.10;92.60;;;;;;5086470;28;19912;-63
2023/06/29 12:20:13;;;;;;;;;;;9.10;92.60;;;;;;5083089;28;20426;-62
2023/06/29 12:22:40;;;;;;;;;;;9.00;92.90;;;;;;5074870;28;19920;-61
2023/06/29 12:25:09;;;;;;;;;;;9.10;93.20;;;;;;5074264;28;19944;-63
2023/06/29 12:27:36;;;;;;;;;;;9.00;93.60;;;;;;5075957;28;19934;-63
2023/06/29 12:30:04;;;;;;;;;;;8.90;93.70;;;;;;5090427;28;19916;-62
2023/06/29 12:32:30;;;;;;;;;;;8.90;93.40;;;;;;5093971;28;19908;-62
2023/06/29 12:34:57;;;;;;;;;;;8.80;93.90;;;;;;5095392;28;20258;-62
2023/06/29 12:37:24;;;;;;;;;;;8.80;93.70;;;;;;5095178;28;19916;-62
2023/06/29 12:39:52;;;;;;;;;;;8.80;93.80;;;;;;5089058;28;19965;-64
2023/06/29 12:42:19;;;;;;;;;;;8.80;94.00;;;;;;5074982;28;19909;-63
2023/06/29 12:44:46;;;;;;;;;;;8.80;94.00;;;;;;5074724;28;20344;-61
2023/06/29 12:47:12;;;;;;;;;;;8.70;94.30;;;;;;5075084;28;19909;-62
2023/06/29 12:49:39;;;;;;;;;;;8.80;94.60;;;;;;5090066;28;19912;-65
2023/06/29 12:52:06;;;;;;;;;;;8.80;94.90;;;;;;5094923;28;20353;-62
2023/06/29 12:54:33;;;;;;;;;;;8.60;94.60;;;;;;5094675;28;19915;-62
2023/06/29 12:57:00;;;;;;;;;;;8.60;94.80;;;;;;5094016;28;20371;-62
2023/06/29 12:59:26;;;;;;;;;;;8.60;94.90;;;;;;5092825;28;19912;-62
2023/06/29 13:01:53;;;;;;;;;;;8.50;94.70;;;;;;5094912;28;19931;-62
2023/06/29 13:04:20;;;;;;;;;;;8.60;94.00;;;;;;5093731;28;19916;-64
2023/06/29 13:06:46;;;;;;;;;;;8.60;93.90;;;;;;5094805;28;20368;-63
2023/06/29 13:09:13;;;;;;;;;;;8.60;94.00;;;;;;5092851;28;19913;-62
2023/06/29 13:11:44;;;;;;;;;;;8.60;93.70;;;;;;5094176;28;19916;-63
2023/06/29 13:14:10;;;;;;;;;;;8.60;93.70;;;;;;5094553;28;19915;-63
2023/06/29 13:16:37;;;;;;;;;;;8.70;93.80;;;;;;5094306;28;20431;-63
2023/06/29 13:19:06;;;;;;;;;;;8.70;93.70;;;;;;5093970;28;19999;-62
2023/06/29 13:21:34;;;;;;;;;;;8.70;93.60;;;;;;5094196;28;19935;-63
2023/06/29 13:24:02;;;;;;;;;;;8.70;93.30;;;;;;5094295;28;19956;-64
2023/06/29 13:26:28;;;;;;;;;;;8.70;93.20;;;;;;5094601;28;20563;-63
2023/06/29 13:28:55;;;;;;;;;;;8.70;93.60;;;;;;5093978;28;19912;-62
2023/06/29 13:31:21;;;;;;;;;;;8.70;93.30;;;;;;5094081;28;19908;-62
2023/06/29 13:33:48;;;;;;;;;;;8.70;93.20;;;;;;5093912;28;19912;-62
2023/06/29 13:36:15;;;;;;;;;;;8.70;93.70;;;;;;5094031;28;19916;-61
2023/06/29 13:38:42;;;;;;;;;;;8.70;93.90;;;;;;5093599;28;19944;-63
2023/06/29 13:41:08;;;;;;;;;;;8.70;93.70;;;;;;5093671;28;19915;-61
2023/06/29 13:43:35;;;;;;;;;;;8.70;93.70;;;;;;5093755;28;19912;-61
2023/06/29 13:46:01;;;;;;;;;;;8.60;93.40;;;;;;5093639;28;19912;-62
2023/06/29 13:48:29;;;;;;;;;;;8.70;93.10;;;;;;5094186;28;19998;-63
2023/06/29 13:50:55;;;;;;;;;;;8.70;93.10;;;;;;5093692;28;19912;-63
2023/06/29 13:53:22;;;;;;;;;;;8.80;93.20;;;;;;5093941;28;19943;-62
2023/06/29 13:55:48;;;;;;;;;;;8.80;92.90;;;;;;5093858;28;19916;-63
2023/06/29 13:58:15;;;;;;;;;;;8.80;93.00;;;;;;5085236;28;20370;-63
2023/06/29 14:00:42;;;;;;;;;;;8.80;92.90;;;;;;5073707;28;19923;-64
2023/06/29 14:03:09;;;;;;;;;;;8.80;93.10;;;;;;5073235;28;20349;-62
2023/06/29 14:05:35;;;;;;;;;;;8.80;93.00;;;;;;5073834;28;19920;-63
2023/06/29 14:08:02;;;;;;;;;;;8.90;93.10;;;;;;5093410;28;19912;-64
2023/06/29 14:10:28;;;;;;;;;;;8.70;93.00;;;;;;5093167;28;20276;-63
2023/06/29 14:12:55;;;;;;;;;;;8.80;93.10;;;;;;5093810;28;19912;-62
2023/06/29 14:15:22;;;;;;;;;;;8.80;93.10;;;;;;5093535;28;20383;-62
2023/06/29 14:17:49;;;;;;;;;;;8.70;93.10;;;;;;5093183;28;19919;-62
2023/06/29 14:20:15;;;;;;;;;;;8.70;93.40;;;;;;5093262;28;19908;-66
2023/06/29 14:22:42;;;;;;;;;;;8.70;93.50;;;;;;5093703;28;19915;-62
2023/06/29 14:25:09;;;;;;;;;;;8.70;93.40;;;;;;5093567;28;19908;-63